Time;durP1;ratioP1;P1;durP2;ratioP2;P2;SDS_P1;SDS_P2;PMS_P1;PMS_P2;Temp;Humidity;BMP_temperature;BMP_pressure;BME280_temperature;BME280_humidity;BME280_pressure;Samples;Min_cycle;Max_cycle;Signal;HPM_P1;HPM_P2
2023/04/21 00:00:53;;;;;;;20.77;11.23;;;;;;;-143.48;86.04;118439.88;5053599;28;20017;-29
2023/04/21 00:03:20;;;;;;;21.48;11.77;;;;;;;-143.48;86.41;118439.88;5053544;28;20021;-28
2023/04/21 00:05:47;;;;;;;19.77;11.50;;;;;;;-143.48;87.43;118439.88;5053737;28;20368;-28
2023/04/21 00:08:13;;;;;;;20.65;11.93;;;;;;;-143.48;87.17;118439.88;5054307;28;20104;-30
2023/04/21 00:10:38;;;;;;;20.48;11.82;;;;;;;-143.48;87.88;118439.88;5053435;28;20417;-28
2023/04/21 00:13:03;;;;;;;20.70;11.55;;;;;;;-143.48;88.14;118439.88;5053751;28;20057;-29
2023/04/21 00:15:29;;;;;;;24.65;12.20;;;;;;;-143.48;87.56;118439.88;5053631;28;20051;-28
2023/04/21 00:17:54;;;;;;;19.02;11.75;;;;;;;-143.48;88.76;118439.88;5053644;28;20017;-28
2023/04/21 00:20:20;;;;;;;22.73;12.75;;;;;;;-143.48;89.66;118439.88;5053372;28;20382;-28
2023/04/21 00:22:45;;;;;;;20.80;12.52;;;;;;;-143.48;90.19;118439.88;5052086;28;20021;-28
2023/04/21 00:25:10;;;;;;;25.90;13.60;;;;;;;-143.48;91.29;118439.88;5053892;28;20368;-28
2023/04/21 00:27:36;;;;;;;24.42;12.85;;;;;;;-143.48;91.83;118439.88;5053204;28;20467;-28
2023/04/21 00:30:01;;;;;;;23.23;13.52;;;;;;;-143.48;93.23;118439.88;5053262;28;20086;-28
2023/04/21 00:32:27;;;;;;;23.08;13.55;;;;;;;-143.48;93.21;118439.88;5053249;28;20025;-28
2023/04/21 00:34:52;;;;;;;22.75;14.40;;;;;;;-143.48;94.39;118439.88;5053232;28;20029;-28
2023/04/21 00:37:17;;;;;;;24.80;14.25;;;;;;;-143.48;94.15;118439.88;5053336;28;20063;-28
2023/04/21 00:39:43;;;;;;;24.13;14.05;;;;;;;-143.48;94.12;118439.88;5053692;28;20021;-28
2023/04/21 00:42:08;;;;;;;27.48;13.70;;;;;;;-143.48;94.72;118439.88;5053403;28;20028;-28
2023/04/21 00:44:33;;;;;;;23.08;13.85;;;;;;;-143.48;95.46;118439.88;5053690;28;20056;-28
2023/04/21 00:46:59;;;;;;;24.30;14.45;;;;;;;-143.48;96.46;118439.88;5052965;28;20442;-28
2023/04/21 00:49:25;;;;;;;26.15;14.40;;;;;;;-143.48;96.64;118439.88;5053289;28;20077;-28
2023/04/21 00:51:51;;;;;;;25.75;14.32;;;;;;;-143.48;96.52;118439.88;5055635;28;20039;-28
2023/04/21 00:54:17;;;;;;;28.00;14.25;;;;;;;-143.48;96.97;118439.88;5056994;28;20116;-28
2023/04/21 00:56:43;;;;;;;27.77;15.18;;;;;;;-143.48;97.38;118439.88;5057534;28;20056;-28
2023/04/21 00:59:08;;;;;;;23.52;14.32;;;;;;;-143.48;98.60;118439.88;5057501;28;20060;-28
2023/04/21 01:01:35;;;;;;;24.13;14.50;;;;;;;-143.48;98.46;118439.88;5057511;28;20479;-28
2023/04/21 01:04:01;;;;;;;24.20;15.07;;;;;;;-143.48;99.13;118439.88;5056873;28;20416;-29
2023/04/21 01:06:28;;;;;;;27.63;15.00;;;;;;;-143.48;99.58;118439.88;5057131;28;20070;-28
2023/04/21 01:08:54;;;;;;;27.27;15.13;;;;;;;-143.48;99.17;118439.88;5056831;28;20056;-29
2023/04/21 01:11:20;;;;;;;27.98;15.18;;;;;;;-143.48;100.00;118439.88;5056644;28;20108;-28
2023/04/21 01:13:46;;;;;;;26.08;15.68;;;;;;;-143.48;100.00;118439.88;5056906;28;20427;-28
2023/04/21 01:16:16;;;;;;;27.05;15.55;;;;;;;-143.48;100.00;118439.88;5056560;28;20025;-28
2023/04/21 01:18:42;;;;;;;27.05;16.05;;;;;;;-143.48;100.00;118439.88;5056637;28;20029;-28
2023/04/21 01:21:08;;;;;;;25.98;15.43;;;;;;;-143.48;100.00;118439.88;5056469;28;20025;-29
2023/04/21 01:23:33;;;;;;;27.05;15.90;;;;;;;-143.48;100.00;118439.88;5056756;28;20024;-28
2023/04/21 01:25:59;;;;;;;28.80;15.70;;;;;;;-143.48;100.00;118439.88;5056425;28;20123;-28
2023/04/21 01:28:25;;;;;;;26.98;15.90;;;;;;;-143.48;100.00;118439.88;5056745;28;20029;-28
2023/04/21 01:30:51;;;;;;;26.88;16.25;;;;;;;-143.48;100.00;118439.88;5056368;28;20503;-28
2023/04/21 01:33:17;;;;;;;27.65;15.65;;;;;;;-143.48;100.00;118439.88;5056292;28;20106;-28
2023/04/21 01:35:43;;;;;;;28.08;15.88;;;;;;;-143.48;100.00;118439.88;5056267;28;20112;-29
2023/04/21 01:38:09;;;;;;;26.08;15.68;;;;;;;-143.48;100.00;118439.88;5056210;28;20112;-29
2023/04/21 01:40:34;;;;;;;28.70;16.52;;;;;;;-143.48;100.00;118439.88;5056224;28;20029;-28
2023/04/21 01:43:00;;;;;;;28.75;15.88;;;;;;;-143.48;100.00;118439.88;5056406;28;20070;-29
2023/04/21 01:45:25;;;;;;;27.50;16.95;;;;;;;-143.48;100.00;118439.88;5056362;28;20112;-28
2023/04/21 01:47:50;;;;;;;27.88;16.10;;;;;;;-143.48;100.00;118439.88;5056481;28;20048;-28
2023/04/21 01:50:17;;;;;;;28.35;16.33;;;;;;;-143.48;100.00;118439.88;5055954;28;20492;-28
2023/04/21 01:52:42;;;;;;;32.33;16.90;;;;;;;-143.48;100.00;118439.88;5056175;28;20514;-28
2023/04/21 01:55:08;;;;;;;27.08;16.13;;;;;;;-143.48;100.00;118439.88;5056072;28;20029;-29
2023/04/21 01:57:33;;;;;;;28.98;17.58;;;;;;;-143.48;100.00;118439.88;5056695;28;20421;-29
2023/04/21 01:59:58;;;;;;;30.63;16.17;;;;;;;-143.48;100.00;118439.88;5056127;28;20020;-28
2023/04/21 02:02:24;;;;;;;29.40;16.88;;;;;;;-143.48;100.00;118439.88;5054737;28;20414;-28
2023/04/21 02:04:49;;;;;;;30.83;16.67;;;;;;;-143.48;100.00;118439.88;5056043;28;20035;-29
2023/04/21 02:07:14;;;;;;;28.10;16.38;;;;;;;-143.48;100.00;118439.88;5055905;28;20024;-29
2023/04/21 02:09:40;;;;;;;30.77;17.33;;;;;;;-143.48;100.00;118439.88;5055965;28;20056;-29
2023/04/21 02:12:05;;;;;;;27.63;16.77;;;;;;;-143.48;100.00;118439.88;5055581;28;20091;-29
2023/04/21 02:14:30;;;;;;;28.20;16.55;;;;;;;-143.48;100.00;118439.88;5055860;28;20033;-28
2023/04/21 02:16:56;;;;;;;30.90;17.27;;;;;;;-143.48;100.00;118439.88;5055510;28;20078;-28
2023/04/21 02:19:21;;;;;;;31.85;17.02;;;;;;;-143.48;100.00;118439.88;5054204;28;20036;-28
2023/04/21 02:21:47;;;;;;;31.75;17.52;;;;;;;-143.48;100.00;118439.88;5055723;28;20078;-28
2023/04/21 02:24:12;;;;;;;32.13;17.25;;;;;;;-143.48;100.00;118439.88;5055383;28;20396;-28
2023/04/21 02:26:37;;;;;;;30.73;17.65;;;;;;;-143.48;100.00;118439.88;5055655;28;20032;-28
2023/04/21 02:29:02;;;;;;;28.77;16.95;;;;;;;-143.48;100.00;118439.88;5055244;28;20475;-28
2023/04/21 02:31:28;;;;;;;36.40;18.65;;;;;;;-143.48;100.00;118439.88;5055257;28;20108;-28
2023/04/21 02:33:54;;;;;;;31.52;17.15;;;;;;;-143.48;100.00;118439.88;5055497;28;20070;-28
2023/04/21 02:36:20;;;;;;;29.42;16.48;;;;;;;-143.48;100.00;118439.88;5055486;28;20032;-28
2023/04/21 02:38:45;;;;;;;28.60;16.75;;;;;;;-143.48;100.00;118439.88;5055305;28;20049;-28
2023/04/21 02:41:10;;;;;;;30.98;16.73;;;;;;;-143.48;100.00;118439.88;5055373;28;20016;-28
2023/04/21 02:43:36;;;;;;;25.90;16.55;;;;;;;-143.48;100.00;118439.88;5055068;28;20021;-28
2023/04/21 02:46:07;;;;;;;33.42;17.60;;;;;;;-143.48;100.00;118439.88;5055040;28;20083;-29
2023/04/21 02:48:34;;;;;;;30.35;17.13;;;;;;;-143.48;100.00;118439.88;5054850;28;20075;-29
2023/04/21 02:50:59;;;;;;;31.70;17.95;;;;;;;-143.48;100.00;118439.88;5054777;28;20067;-28
2023/04/21 02:53:25;;;;;;;27.98;16.73;;;;;;;-143.48;100.00;118439.88;5055096;28;20467;-28
2023/04/21 02:55:50;;;;;;;29.42;17.42;;;;;;;-143.48;100.00;118439.88;5055355;28;20108;-29
2023/04/21 02:58:15;;;;;;;27.40;16.20;;;;;;;-143.48;100.00;118439.88;5055050;28;20029;-28
2023/04/21 03:00:41;;;;;;;30.63;17.25;;;;;;;-143.48;100.00;118439.88;5054643;28;20383;-28
2023/04/21 03:03:06;;;;;;;30.05;17.35;;;;;;;-143.48;100.00;118439.88;5054852;28;20029;-29
2023/04/21 03:05:31;;;;;;;32.03;17.40;;;;;;;-143.48;100.00;118439.88;5054626;28;20028;-28
2023/04/21 03:07:57;;;;;;;28.98;17.38;;;;;;;-143.48;100.00;118439.88;5054878;28;20021;-29
2023/04/21 03:10:22;;;;;;;30.25;16.77;;;;;;;-143.48;100.00;118439.88;5055312;28;21896;-28
2023/04/21 03:12:48;;;;;;;35.65;17.20;;;;;;;-143.48;100.00;118439.88;5053079;28;20059;-28
2023/04/21 03:15:13;;;;;;;28.67;16.90;;;;;;;-143.48;100.00;118439.88;5054014;28;20471;-28
2023/04/21 03:17:40;;;;;;;29.40;16.63;;;;;;;-143.48;100.00;118439.88;5054655;28;20025;-29
2023/04/21 03:20:07;;;;;;;28.20;15.88;;;;;;;-143.48;100.00;118439.88;5054338;28;20063;-29
2023/04/21 03:22:36;;;;;;;30.20;15.73;;;;;;;-143.48;100.00;118439.88;5054445;28;20517;-29
2023/04/21 03:25:03;;;;;;;30.65;16.83;;;;;;;-143.48;100.00;118439.88;5054265;28;20025;-29
2023/04/21 03:27:29;;;;;;;32.35;17.20;;;;;;;-143.48;100.00;118439.88;5054444;28;20074;-28
2023/04/21 03:29:54;;;;;;;34.58;18.35;;;;;;;-143.48;100.00;118439.88;5054166;28;20472;-28
2023/04/21 03:32:19;;;;;;;31.88;18.08;;;;;;;-143.48;100.00;118439.88;5054846;28;20540;-28
2023/04/21 03:34:45;;;;;;;32.85;16.80;;;;;;;-143.48;100.00;118439.88;5054221;28;20025;-29
2023/04/21 03:37:10;;;;;;;32.28;17.25;;;;;;;-143.48;100.00;118439.88;5054312;28;20033;-28
2023/04/21 03:39:35;;;;;;;31.83;17.38;;;;;;;-143.48;100.00;118439.88;5053953;28;20380;-28
2023/04/21 03:42:01;;;;;;;26.23;16.02;;;;;;;-143.48;100.00;118439.88;5053892;28;20021;-28
2023/04/21 03:44:27;;;;;;;27.52;16.45;;;;;;;-143.48;100.00;118439.88;5054063;28;20052;-28
2023/04/21 03:46:53;;;;;;;29.30;15.93;;;;;;;-143.48;100.00;118439.88;5053698;28;20126;-29
2023/04/21 03:49:19;;;;;;;27.73;16.52;;;;;;;-143.48;100.00;118439.88;5053864;28;20028;-28
2023/04/21 03:51:45;;;;;;;26.05;14.95;;;;;;;-143.48;100.00;118439.88;5053974;28;20021;-28
2023/04/21 03:54:11;;;;;;;24.67;15.15;;;;;;;-143.48;100.00;118439.88;5054023;28;20079;-28
2023/04/21 03:56:37;;;;;;;27.52;15.88;;;;;;;-143.48;100.00;118439.88;5053671;28;20061;-29
2023/04/21 03:59:03;;;;;;;27.38;16.50;;;;;;;-143.48;100.00;118439.88;5053611;28;20048;-29
2023/04/21 04:01:28;;;;;;;29.98;15.75;;;;;;;-143.48;100.00;118439.88;5053729;28;20021;-28
2023/04/21 04:03:54;;;;;;;28.60;16.02;;;;;;;-143.48;100.00;118439.88;5053597;28;20044;-29
2023/04/21 04:06:19;;;;;;;24.02;14.85;;;;;;;-143.48;100.00;118439.88;5053566;28;20426;-28
2023/04/21 04:08:45;;;;;;;26.17;14.60;;;;;;;-143.48;100.00;118439.88;5053768;28;20036;-28
2023/04/21 04:11:10;;;;;;;26.33;14.55;;;;;;;-143.48;100.00;118439.88;5053590;28;20482;-28
2023/04/21 04:13:36;;;;;;;26.80;15.68;;;;;;;-143.48;100.00;118439.88;5054037;28;20033;-29
2023/04/21 04:16:01;;;;;;;25.13;14.02;;;;;;;-143.48;100.00;118439.88;5052214;28;20021;-28
2023/04/21 04:18:26;;;;;;;22.58;13.88;;;;;;;-143.48;100.00;118439.88;5053623;28;20025;-28
2023/04/21 04:20:51;;;;;;;23.50;14.90;;;;;;;-143.48;100.00;118439.88;5053396;28;20144;-28
2023/04/21 04:23:17;;;;;;;24.08;14.68;;;;;;;-143.48;100.00;118439.88;5053663;28;20529;-28
2023/04/21 04:25:42;;;;;;;24.70;14.40;;;;;;;-143.48;100.00;118439.88;5052544;28;20405;-29
2023/04/21 04:28:08;;;;;;;23.70;14.63;;;;;;;-143.48;100.00;118439.88;5053567;28;20052;-28
2023/04/21 04:30:34;;;;;;;25.52;14.70;;;;;;;-143.48;100.00;118439.88;5053469;28;20114;-29
2023/04/21 04:33:00;;;;;;;23.45;14.50;;;;;;;-143.48;100.00;118439.88;5053260;28;20029;-28
2023/04/21 04:35:25;;;;;;;26.10;14.90;;;;;;;-143.48;100.00;118439.88;5053724;28;20036;-28
2023/04/21 04:37:51;;;;;;;24.88;14.82;;;;;;;-143.48;100.00;118439.88;5053467;28;20039;-28
2023/04/21 04:40:16;;;;;;;24.27;15.48;;;;;;;-143.48;100.00;118439.88;5053387;28;20494;-28
2023/04/21 04:42:44;;;;;;;25.80;15.15;;;;;;;-143.48;100.00;118439.88;5053485;28;20357;-28
2023/04/21 04:45:10;;;;;;;22.95;14.80;;;;;;;-143.48;100.00;118439.88;5053459;28;20100;-28
2023/04/21 04:47:36;;;;;;;24.42;15.15;;;;;;;-143.48;100.00;118439.88;5053060;28;20075;-28
2023/04/21 04:50:01;;;;;;;23.70;14.35;;;;;;;-143.48;100.00;118439.88;5053036;28;20068;-28
2023/04/21 04:52:27;;;;;;;24.38;15.07;;;;;;;-143.48;100.00;118439.88;5052935;28;20029;-29
2023/04/21 04:54:52;;;;;;;24.80;15.57;;;;;;;-143.48;100.00;118439.88;5053369;28;20071;-29
2023/04/21 04:57:18;;;;;;;26.92;15.68;;;;;;;-143.48;100.00;118439.88;5035263;28;20024;-28
2023/04/21 04:59:43;;;;;;;27.75;16.48;;;;;;;-143.48;100.00;118439.88;5053258;28;20059;-29
2023/04/21 05:02:09;;;;;;;24.83;15.80;;;;;;;-143.48;100.00;118439.88;5053607;28;20095;-28
2023/04/21 05:04:34;;;;;;;24.15;15.95;;;;;;;-143.48;100.00;118439.88;5053257;28;20470;-28
2023/04/21 05:07:00;;;;;;;26.33;16.92;;;;;;;-143.48;100.00;118439.88;5053012;28;20419;-29
2023/04/21 05:09:25;;;;;;;29.48;17.02;;;;;;;-143.48;100.00;118439.88;5052861;28;20025;-28
2023/04/21 05:11:50;;;;;;;33.50;17.33;;;;;;;-143.48;100.00;118439.88;5052946;28;20037;-28
2023/04/21 05:14:16;;;;;;;29.40;17.25;;;;;;;-143.48;100.00;118439.88;5052954;28;20446;-29
2023/04/21 05:16:45;;;;;;;28.13;17.45;;;;;;;-143.48;100.00;118439.88;5051565;28;20099;-28
2023/04/21 05:19:10;;;;;;;29.35;17.67;;;;;;;-143.48;100.00;118439.88;5051596;28;20036;-28
2023/04/21 05:21:35;;;;;;;29.40;17.90;;;;;;;-143.48;100.00;118439.88;5051472;28;20021;-28
2023/04/21 05:24:01;;;;;;;31.33;18.05;;;;;;;-143.48;100.00;118439.88;5052880;28;20102;-28
2023/04/21 05:26:28;;;;;;;27.75;18.00;;;;;;;-143.48;100.00;118439.88;5052682;28;20047;-28
2023/04/21 05:28:55;;;;;;;24.85;16.20;;;;;;;-143.48;100.00;118439.88;5050573;28;20104;-28
2023/04/21 05:31:20;;;;;;;25.60;17.27;;;;;;;-143.48;100.00;118439.88;5050494;28;20029;-29
2023/04/21 05:33:46;;;;;;;27.95;17.05;;;;;;;-143.48;100.00;118439.88;5050540;28;20074;-29
2023/04/21 05:36:11;;;;;;;25.90;17.30;;;;;;;-143.48;100.00;118439.88;5050360;28;20108;-28
2023/04/21 05:38:37;;;;;;;29.45;17.30;;;;;;;-143.48;100.00;118439.88;5054156;28;20029;-29
2023/04/21 05:41:03;;;;;;;29.13;17.02;;;;;;;-143.48;100.00;118439.88;5054005;28;20107;-28
2023/04/21 05:43:32;;;;;;;28.88;17.88;;;;;;;-143.48;100.00;118439.88;5055779;28;20029;-28
2023/04/21 05:45:57;;;;;;;26.10;17.27;;;;;;;-143.48;100.00;118439.88;5056842;28;20028;-28
2023/04/21 05:48:23;;;;;;;27.83;17.73;;;;;;;-143.48;100.00;118439.88;5056051;28;20044;-28
2023/04/21 05:50:48;;;;;;;25.48;17.52;;;;;;;-143.48;100.00;118439.88;5056235;28;20078;-28
2023/04/21 05:53:13;;;;;;;27.38;17.38;;;;;;;-143.48;100.00;118439.88;5056514;28;20025;-29
2023/04/21 05:55:39;;;;;;;28.52;18.15;;;;;;;-143.48;100.00;118439.88;5056241;28;20021;-28
2023/04/21 05:58:04;;;;;;;31.98;18.00;;;;;;;-143.48;100.00;118439.88;5056071;28;20024;-28
2023/04/21 06:00:29;;;;;;;28.52;17.67;;;;;;;-143.48;100.00;118439.88;5056164;28;20095;-28
2023/04/21 06:02:55;;;;;;;29.40;18.25;;;;;;;-143.48;100.00;118439.88;5055881;28;20491;-29
2023/04/21 06:05:20;;;;;;;26.65;17.30;;;;;;;-143.48;100.00;118439.88;5055971;28;20498;-28
2023/04/21 06:07:45;;;;;;;30.52;17.77;;;;;;;-143.48;100.00;118439.88;5055903;28;20029;-28
2023/04/21 06:10:13;;;;;;;26.08;17.67;;;;;;;-143.48;100.00;118439.88;5056081;28;20066;-29
2023/04/21 06:12:38;;;;;;;27.25;17.52;;;;;;;-143.48;100.00;118439.88;5055582;28;20111;-29
2023/04/21 06:15:04;;;;;;;29.45;18.17;;;;;;;-143.48;100.00;118439.88;5055547;28;20459;-28
2023/04/21 06:17:29;;;;;;;28.90;17.95;;;;;;;-143.48;100.00;118439.88;5055736;28;20021;-28
2023/04/21 06:19:54;;;;;;;30.88;18.90;;;;;;;-143.48;100.00;118439.88;5055296;28;20020;-28
2023/04/21 06:22:23;;;;;;;32.15;19.20;;;;;;;-143.48;100.00;118439.88;5055332;28;20104;-29
2023/04/21 06:24:49;;;;;;;31.35;18.92;;;;;;;-143.48;100.00;118439.88;5055600;28;20487;-28
2023/04/21 06:27:15;;;;;;;32.55;19.20;;;;;;;-143.48;100.00;118439.88;5055103;28;20017;-28
2023/04/21 06:29:44;;;;;;;30.17;19.23;;;;;;;-143.48;100.00;118439.88;5055712;28;20025;-29
2023/04/21 06:32:11;;;;;;;34.50;19.48;;;;;;;-143.48;100.00;118439.88;5055171;28;20029;-29
2023/04/21 06:34:37;;;;;;;32.92;19.17;;;;;;;-143.48;100.00;118439.88;5055232;28;20025;-29
2023/04/21 06:37:03;;;;;;;33.95;19.45;;;;;;;-143.48;100.00;118439.88;5055165;28;20025;-30
2023/04/21 06:39:28;;;;;;;32.30;19.05;;;;;;;-143.48;100.00;118439.88;5055396;28;20029;-29
2023/04/21 06:41:54;;;;;;;28.08;18.98;;;;;;;-143.48;100.00;118439.88;5054936;28;20047;-29
2023/04/21 06:44:20;;;;;;;30.40;18.60;;;;;;;-143.48;100.00;118439.88;5054984;28;20021;-30
2023/04/21 06:46:46;;;;;;;37.53;20.50;;;;;;;-143.48;100.00;118439.88;5054837;28;20053;-30
2023/04/21 06:49:11;;;;;;;32.42;19.35;;;;;;;-143.48;100.00;118439.88;5054348;28;20025;-29
2023/04/21 06:51:36;;;;;;;30.58;18.00;;;;;;;-143.48;100.00;118439.88;5055227;28;20028;-29
2023/04/21 06:54:02;;;;;;;31.08;19.13;;;;;;;-143.48;100.00;118439.88;5055102;28;20376;-29
2023/04/21 06:56:28;;;;;;;30.70;19.63;;;;;;;-143.48;100.00;118439.88;5054639;28;20098;-29
2023/04/21 06:58:53;;;;;;;31.00;19.63;;;;;;;-143.48;100.00;118439.88;5054859;28;20021;-29
2023/04/21 07:01:19;;;;;;;29.95;19.23;;;;;;;-143.48;100.00;118439.88;5055091;28;20060;-29
2023/04/21 07:03:45;;;;;;;27.90;19.35;;;;;;;-143.48;100.00;118439.88;5054681;28;20016;-29
2023/04/21 07:06:11;;;;;;;28.65;18.42;;;;;;;-143.48;100.00;118439.88;5054403;28;20195;-29
2023/04/21 07:08:36;;;;;;;30.63;19.02;;;;;;;-143.48;100.00;118439.88;5054483;28;20036;-29
2023/04/21 07:11:02;;;;;;;33.03;18.98;;;;;;;-143.48;98.74;118439.88;5054940;28;20025;-29
2023/04/21 07:13:27;;;;;;;27.00;18.83;;;;;;;-143.48;97.31;118439.88;5054373;28;20480;-29
2023/04/21 07:15:52;;;;;;;28.85;18.95;;;;;;;-143.48;97.05;118439.88;5054299;28;20071;-29
2023/04/21 07:18:18;;;;;;;26.00;18.02;;;;;;;-143.48;97.90;118439.88;5054418;28;20124;-29
2023/04/21 07:20:43;;;;;;;27.88;17.42;;;;;;;-143.48;96.43;118439.88;5054477;28;20471;-29
2023/04/21 07:23:09;;;;;;;29.80;18.60;;;;;;;-143.48;96.77;118439.88;5053898;28;20442;-29
2023/04/21 07:25:35;;;;;;;28.02;17.85;;;;;;;-143.48;94.19;118439.88;5054290;28;20028;-28
2023/04/21 07:28:02;;;;;;;26.13;17.60;;;;;;;-143.48;81.75;118439.88;5054188;28;20025;-29
2023/04/21 07:30:28;;;;;;;22.48;15.45;;;;;;;-143.48;72.34;118439.88;5054334;28;20029;-29
2023/04/21 07:32:53;;;;;;;25.90;15.57;;;;;;;-143.48;76.09;118439.88;5054490;28;20057;-30
2023/04/21 07:35:18;;;;;;;22.05;15.93;;;;;;;-143.48;78.18;118439.88;5053849;28;20074;-29
2023/04/21 07:37:44;;;;;;;24.90;16.08;;;;;;;-143.48;83.82;118439.88;5054124;28;20482;-29
2023/04/21 07:40:09;;;;;;;27.25;17.50;;;;;;;-143.48;87.72;118439.88;5054009;28;20082;-28
2023/04/21 07:42:35;;;;;;;21.65;16.38;;;;;;;-143.48;86.79;118439.88;5052736;28;20463;-29
2023/04/21 07:45:01;;;;;;;25.05;17.90;;;;;;;-143.48;91.54;118439.88;5052572;28;20029;-28
2023/04/21 07:47:27;;;;;;;25.75;18.50;;;;;;;-143.48;91.85;118439.88;5054304;28;20083;-28
2023/04/21 07:49:52;;;;;;;27.98;18.23;;;;;;;-143.48;92.31;118439.88;5053723;28;20025;-28
2023/04/21 07:52:17;;;;;;;28.35;18.27;;;;;;;-143.48;89.79;118439.88;5053767;28;20021;-29
2023/04/21 07:54:43;;;;;;;30.52;19.38;;;;;;;-143.48;90.95;118439.88;5053873;28;20426;-30
2023/04/21 07:57:09;;;;;;;29.58;19.27;;;;;;;-143.48;93.07;118439.88;5054254;28;20025;-30
2023/04/21 07:59:34;;;;;;;27.85;19.33;;;;;;;-143.48;92.18;118439.88;5053408;28;20058;-29
2023/04/21 08:02:00;;;;;;;29.98;19.75;;;;;;;-143.48;86.88;118439.88;5053669;28;20160;-30
2023/04/21 08:04:26;;;;;;;30.73;17.98;;;;;;;-143.48;81.03;118439.88;5053556;28;20479;-30
2023/04/21 08:06:51;;;;;;;26.63;18.00;;;;;;;-143.48;81.13;118439.88;5053528;28;20032;-30
2023/04/21 08:09:17;;;;;;;26.85;18.58;;;;;;;-143.48;80.73;118439.88;5053361;28;20439;-30
2023/04/21 08:11:42;;;;;;;28.40;18.73;;;;;;;-143.48;77.85;118439.88;5053611;28;20083;-30
2023/04/21 08:14:10;;;;;;;26.00;18.33;;;;;;;-143.48;82.52;118439.88;5053884;28;20083;-29
2023/04/21 08:16:36;;;;;;;28.92;19.27;;;;;;;-143.48;78.07;118439.88;5051161;28;20086;-30
2023/04/21 08:19:01;;;;;;;25.48;18.65;;;;;;;-143.48;74.60;118439.88;5053602;28;20021;-29
2023/04/21 08:21:27;;;;;;;33.72;18.45;;;;;;;-143.48;77.73;118439.88;5053073;28;20152;-29
2023/04/21 08:23:54;;;;;;;26.48;18.58;;;;;;;-143.48;78.85;118439.88;5053456;28;20024;-29
2023/04/21 08:26:20;;;;;;;26.20;18.02;;;;;;;-143.48;80.61;118439.88;5053074;28;20090;-30
2023/04/21 08:28:48;;;;;;;30.00;19.42;;;;;;;-143.48;81.13;118439.88;5053751;28;20460;-30
2023/04/21 08:31:13;;;;;;;25.60;19.15;;;;;;;-143.48;81.54;118439.88;5053274;28;20463;-29
2023/04/21 08:33:38;;;;;;;27.65;19.00;;;;;;;-143.48;80.00;118439.88;5053343;28;20025;-31
2023/04/21 08:36:04;;;;;;;26.42;18.15;;;;;;;-143.48;74.30;118439.88;5053423;28;20492;-30
2023/04/21 08:38:30;;;;;;;24.58;17.77;;;;;;;-143.48;78.04;118439.88;5053385;28;20108;-30
2023/04/21 08:40:57;;;;;;;29.60;18.95;;;;;;;-143.48;78.57;118439.88;5053291;28;20570;-30
2023/04/21 08:43:23;;;;;;;28.35;19.30;;;;;;;-143.48;79.47;118439.88;5052887;28;20037;-30
2023/04/21 08:45:50;;;;;;;31.10;19.30;;;;;;;-143.48;82.09;118439.88;5051707;28;20112;-29
2023/04/21 08:48:19;;;;;;;30.40;19.85;;;;;;;-143.48;83.20;118439.88;5052759;28;20088;-29
2023/04/21 08:50:47;;;;;;;31.38;20.27;;;;;;;-143.48;82.93;118439.88;5052712;28;20032;-30
2023/04/21 08:53:12;;;;;;;26.58;19.38;;;;;;;-143.48;83.09;118439.88;5052844;28;20060;-30
2023/04/21 08:55:39;;;;;;;32.97;19.92;;;;;;;-143.48;85.51;118439.88;5052908;28;20057;-30
2023/04/21 08:58:05;;;;;;;32.33;20.25;;;;;;;-143.48;85.78;118439.88;5052516;28;20043;-29
2023/04/21 09:00:31;;;;;;;29.10;19.85;;;;;;;-143.48;84.18;118439.88;5052742;28;20435;-29
2023/04/21 09:02:59;;;;;;;28.67;20.20;;;;;;;-143.48;80.55;118439.88;5052630;28;20158;-29
2023/04/21 09:05:29;;;;;;;25.77;19.00;;;;;;;-143.48;78.80;118439.88;5052623;28;20029;-29
2023/04/21 09:08:08;;;;;;;29.95;20.08;;;;;;;-143.48;80.75;118439.88;5053236;28;20123;-29
2023/04/21 09:10:41;;;;;;;28.13;19.52;;;;;;;-143.48;79.53;118439.88;5051274;28;20369;-29
2023/04/21 09:13:07;;;;;;;31.45;19.77;;;;;;;-143.48;80.19;118439.88;5056257;28;20045;-29
2023/04/21 09:15:38;;;;;;;24.23;18.35;;;;;;;-143.48;78.09;118439.88;5056333;28;20082;-29
2023/04/21 09:18:10;;;;;;;29.52;19.30;;;;;;;-143.48;80.21;118439.88;5056188;28;20036;-30
2023/04/21 09:20:35;;;;;;;26.92;19.00;;;;;;;-143.48;77.98;118439.88;5056350;28;20029;-28
2023/04/21 09:23:04;;;;;;;26.52;18.83;;;;;;;-143.48;75.51;118439.88;5056597;28;20035;-28
2023/04/21 09:25:31;;;;;;;29.67;18.77;;;;;;;-143.48;74.30;118439.88;5056792;28;20016;-28
2023/04/21 09:27:59;;;;;;;24.85;17.98;;;;;;;-143.48;77.14;118439.88;5056736;28;20059;-28
2023/04/21 09:30:24;;;;;;;25.63;18.48;;;;;;;-143.48;76.62;118439.88;5056742;28;20086;-30
2023/04/21 09:32:49;;;;;;;27.88;18.15;;;;;;;-143.48;79.17;118439.88;5056307;28;20032;-29
2023/04/21 09:35:15;;;;;;;29.65;19.40;;;;;;;-143.48;80.27;118439.88;5056495;28;20017;-29
2023/04/21 09:37:43;;;;;;;27.65;19.05;;;;;;;-143.48;79.92;118439.88;5056114;28;20119;-29
2023/04/21 09:40:12;;;;;;;25.95;18.13;;;;;;;-143.48;79.03;118439.88;5056481;28;20463;-29
2023/04/21 09:42:37;;;;;;;29.80;19.17;;;;;;;-143.48;79.08;118439.88;5056263;28;20055;-29
2023/04/21 09:45:03;;;;;;;25.38;18.20;;;;;;;-143.48;76.93;118439.88;5054864;28;20033;-29
2023/04/21 09:47:33;;;;;;;30.05;19.30;;;;;;;-143.48;77.84;118439.88;5055868;28;20044;-30
2023/04/21 09:50:00;;;;;;;28.13;20.08;;;;;;;-143.48;78.54;118439.88;5056261;28;20040;-28
2023/04/21 09:52:27;;;;;;;27.92;19.10;;;;;;;-143.48;80.71;118439.88;5054699;28;20024;-29
2023/04/21 09:54:59;;;;;;;28.17;19.67;;;;;;;-143.48;82.20;118439.88;5055978;28;20024;-29
2023/04/21 09:57:25;;;;;;;27.05;19.25;;;;;;;-143.48;79.57;118439.88;5055888;28;20105;-29
2023/04/21 09:59:58;;;;;;;29.58;19.83;;;;;;;-143.48;78.43;118439.88;5055741;28;20032;-29
2023/04/21 10:02:27;;;;;;;28.48;19.45;;;;;;;-143.48;80.48;118439.88;5055595;28;20016;-28
2023/04/21 10:04:53;;;;;;;26.05;19.05;;;;;;;-143.48;78.55;118439.88;5056297;28;20104;-29
2023/04/21 10:07:18;;;;;;;27.15;19.10;;;;;;;-143.48;76.28;118439.88;5056020;28;20067;-27
2023/04/21 10:09:54;;;;;;;27.67;18.63;;;;;;;-143.48;74.09;118439.88;5055604;28;20047;-27
2023/04/21 10:12:21;;;;;;;28.67;19.00;;;;;;;-143.48;74.91;118439.88;5056019;28;20047;-32
2023/04/21 10:14:52;;;;;;;26.75;18.50;;;;;;;-143.48;77.36;118439.88;5055847;28;20025;-26
2023/04/21 10:17:21;;;;;;;26.30;19.35;;;;;;;-143.48;78.25;118439.88;5056041;28;20035;-27
2023/04/21 10:19:57;;;;;;;28.33;19.50;;;;;;;-143.48;79.66;118439.88;5055605;28;20387;-27
2023/04/21 10:22:27;;;;;;;29.17;19.27;;;;;;;-143.48;80.70;118439.88;5055562;28;20025;-29
2023/04/21 10:24:58;;;;;;;30.02;19.58;;;;;;;-143.48;78.25;118439.88;5054603;28;20024;-29
2023/04/21 10:27:36;;;;;;;26.67;18.63;;;;;;;-143.48;77.10;118439.88;5055319;28;20487;-29
2023/04/21 10:30:21;;;;;;;26.20;18.95;;;;;;;-143.48;76.39;118439.88;5053138;28;20017;-29
2023/04/21 10:32:47;;;;;;;27.83;19.92;;;;;;;-143.48;79.35;118439.88;5054675;28;20461;-28
2023/04/21 10:35:21;;;;;;;27.65;19.05;;;;;;;-143.48;81.94;118439.88;5055779;28;20033;-28
2023/04/21 10:37:48;;;;;;;28.55;19.13;;;;;;;-143.48;80.05;118439.88;5055336;28;20028;-28
2023/04/21 10:40:29;;;;;;;28.13;19.45;;;;;;;-143.48;79.75;118439.88;5055317;28;20410;-28
2023/04/21 10:42:54;;;;;;;28.42;19.35;;;;;;;-143.48;79.01;118439.88;5054750;28;20123;-28
2023/04/21 10:45:19;;;;;;;27.35;18.98;;;;;;;-143.48;77.09;118439.88;5055133;28;20100;-28